createdAt,value
2017-10-31T00:00:58.638Z,4.00
2017-10-31T00:01:58.631Z,4.00
2017-10-31T00:02:58.633Z,4.00
2017-10-31T00:03:58.624Z,4.00
2017-10-31T00:04:58.638Z,4.00
2017-10-31T00:05:58.614Z,4.00
2017-10-31T00:06:58.611Z,4.00
2017-10-31T00:07:58.609Z,4.00
2017-10-31T00:08:58.608Z,4.00
2017-10-31T00:09:58.596Z,4.00
2017-10-31T00:10:58.598Z,4.00
2017-10-31T00:11:58.601Z,4.00
2017-10-31T00:12:58.598Z,4.00
2017-10-31T00:13:58.584Z,4.00
2017-10-31T00:14:58.582Z,4.00
2017-10-31T00:15:58.569Z,4.00
2017-10-31T00:16:58.566Z,4.00
2017-10-31T00:17:58.565Z,4.00
2017-10-31T00:18:58.563Z,4.00
2017-10-31T00:19:58.581Z,4.00
2017-10-31T00:20:58.554Z,4.00
2017-10-31T00:21:58.545Z,4.00
2017-10-31T00:22:58.543Z,4.00
2017-10-31T00:23:58.534Z,4.00
2017-10-31T00:24:58.530Z,4.00
2017-10-31T00:25:58.524Z,4.00
2017-10-31T00:26:58.520Z,4.00
2017-10-31T00:27:58.521Z,8.00
2017-10-31T00:28:58.511Z,4.00
2017-10-31T00:29:58.510Z,4.00
2017-10-31T00:30:58.500Z,4.00
2017-10-31T00:31:58.497Z,8.00
2017-10-31T00:32:58.492Z,4.00
2017-10-31T00:33:58.502Z,4.00
2017-10-31T00:34:58.483Z,4.00
2017-10-31T00:35:58.480Z,4.00
2017-10-31T00:36:58.478Z,4.00
2017-10-31T00:37:58.470Z,4.00
2017-10-31T00:38:58.467Z,4.00
2017-10-31T00:39:58.466Z,4.00
2017-10-31T00:40:58.456Z,4.00
2017-10-31T00:41:58.466Z,4.00
2017-10-31T00:42:58.446Z,4.00
2017-10-31T00:43:58.443Z,4.00
2017-10-31T00:44:58.494Z,4.00
2017-10-31T00:45:58.436Z,4.00
2017-10-31T00:46:58.426Z,4.00
2017-10-31T00:47:58.435Z,4.00
2017-10-31T00:48:58.441Z,4.00
2017-10-31T00:49:58.413Z,4.00
2017-10-31T00:50:58.409Z,4.00
2017-10-31T00:51:58.408Z,4.00
2017-10-31T00:52:58.399Z,4.00
2017-10-31T00:53:58.401Z,4.00
2017-10-31T00:54:58.394Z,4.00
2017-10-31T00:55:58.387Z,4.00
2017-10-31T00:56:58.383Z,4.00
2017-10-31T00:57:58.381Z,4.00
2017-10-31T00:58:58.372Z,4.00
2017-10-31T00:59:58.369Z,4.00
2017-10-31T01:00:58.367Z,4.00
2017-10-31T01:01:58.358Z,4.00
2017-10-31T01:02:58.354Z,4.00
2017-10-31T01:03:58.357Z,4.00
2017-10-31T01:04:58.361Z,4.00
2017-10-31T01:05:58.341Z,4.00
2017-10-31T01:06:58.344Z,4.00
2017-10-31T01:07:58.331Z,4.00
2017-10-31T01:08:58.771Z,4.00
2017-10-31T01:09:58.328Z,4.00
2017-10-31T01:10:58.320Z,4.00
2017-10-31T01:11:58.316Z,4.00
2017-10-31T01:12:58.313Z,4.00
2017-10-31T01:13:58.308Z,4.00
2017-10-31T01:14:58.303Z,4.00
2017-10-31T01:15:58.299Z,4.00
2017-10-31T01:16:58.295Z,4.00
2017-10-31T01:17:58.290Z,4.00
2017-10-31T01:18:58.287Z,4.00
2017-10-31T01:19:58.280Z,4.00
2017-10-31T01:20:58.276Z,4.00
2017-10-31T01:21:58.271Z,4.00
2017-10-31T01:22:58.266Z,4.00
2017-10-31T01:23:58.270Z,4.00
2017-10-31T01:24:58.257Z,4.00
2017-10-31T01:25:58.254Z,4.00
2017-10-31T01:26:58.248Z,4.00
2017-10-31T01:27:58.246Z,4.00
2017-10-31T01:28:58.244Z,4.00
2017-10-31T01:29:58.236Z,4.00
2017-10-31T01:30:58.234Z,4.00
2017-10-31T01:31:58.234Z,4.00
2017-10-31T01:32:58.222Z,4.00
2017-10-31T01:33:58.215Z,4.00
2017-10-31T01:34:58.222Z,4.00
2017-10-31T01:35:58.210Z,4.00
2017-10-31T01:36:58.205Z,4.00
2017-10-31T01:37:58.229Z,4.00
2017-10-31T01:38:58.195Z,4.00
2017-10-31T01:39:59.187Z,4.00
2017-10-31T01:40:58.188Z,4.00
2017-10-31T01:41:58.189Z,4.00
2017-10-31T01:42:58.181Z,4.00
2017-10-31T01:43:58.174Z,4.00
2017-10-31T01:44:58.169Z,4.00
2017-10-31T01:45:58.165Z,4.00
2017-10-31T01:46:58.160Z,4.00
2017-10-31T01:47:58.155Z,4.00
2017-10-31T01:48:58.151Z,4.00
2017-10-31T01:49:58.147Z,4.00
2017-10-31T01:50:58.143Z,4.00
2017-10-31T01:51:58.139Z,4.00
2017-10-31T01:52:58.135Z,4.00
2017-10-31T01:53:58.130Z,4.00
2017-10-31T01:54:58.125Z,4.00
2017-10-31T01:55:58.131Z,4.00
2017-10-31T01:56:58.122Z,4.00
2017-10-31T01:57:58.117Z,4.00
2017-10-31T01:58:58.107Z,4.00
2017-10-31T01:59:58.100Z,4.00
2017-10-31T02:00:58.097Z,4.00
2017-10-31T02:01:58.095Z,4.00
2017-10-31T02:02:58.093Z,4.00
2017-10-31T02:03:58.086Z,4.00
2017-10-31T02:04:58.081Z,4.00
2017-10-31T02:05:58.076Z,4.00
2017-10-31T02:06:58.072Z,4.00
2017-10-31T02:07:58.067Z,4.00
2017-10-31T02:08:58.070Z,4.00
2017-10-31T02:09:58.059Z,4.00
2017-10-31T02:10:58.053Z,4.00
2017-10-31T02:11:58.049Z,4.00
2017-10-31T02:12:58.042Z,4.00
2017-10-31T02:13:58.037Z,4.00
2017-10-31T02:14:58.049Z,4.00
2017-10-31T02:15:58.030Z,4.00
2017-10-31T02:16:58.026Z,4.00
2017-10-31T02:17:58.032Z,4.00
2017-10-31T02:18:58.018Z,4.00
2017-10-31T02:19:58.014Z,4.00
2017-10-31T02:20:58.011Z,4.00
2017-10-31T02:21:58.004Z,4.00
2017-10-31T02:22:58.000Z,4.00
2017-10-31T02:23:58.001Z,4.00
2017-10-31T02:24:57.993Z,4.00
2017-10-31T02:25:57.986Z,4.00
2017-10-31T02:26:57.985Z,4.00
2017-10-31T02:27:57.978Z,4.00
2017-10-31T02:28:57.971Z,4.00
2017-10-31T02:29:57.971Z,4.00
2017-10-31T02:30:57.964Z,4.00
2017-10-31T02:31:57.962Z,4.00
2017-10-31T02:32:57.959Z,4.00
2017-10-31T02:33:57.949Z,4.00
2017-10-31T02:34:57.950Z,4.00
2017-10-31T02:35:57.942Z,4.00
2017-10-31T02:36:57.940Z,4.00
2017-10-31T02:37:57.954Z,4.00
2017-10-31T02:38:57.927Z,4.00
2017-10-31T02:39:57.922Z,4.00
2017-10-31T02:40:57.967Z,4.00
2017-10-31T02:41:57.913Z,4.00
2017-10-31T02:42:57.909Z,4.00
2017-10-31T02:43:57.904Z,4.00
2017-10-31T02:44:57.899Z,4.00
2017-10-31T02:45:57.899Z,4.00
2017-10-31T02:46:57.891Z,4.00
2017-10-31T02:47:57.889Z,4.00
2017-10-31T02:48:57.881Z,4.00
2017-10-31T02:49:57.878Z,4.00
2017-10-31T02:50:57.907Z,4.00
2017-10-31T02:51:57.866Z,4.00
2017-10-31T02:52:57.861Z,4.00
2017-10-31T02:53:57.859Z,4.00
2017-10-31T02:54:57.854Z,4.00
2017-10-31T02:55:57.854Z,4.00
2017-10-31T02:56:57.844Z,4.00
2017-10-31T02:57:58.654Z,4.00
2017-10-31T02:58:57.839Z,4.00
2017-10-31T02:59:57.840Z,4.00
2017-10-31T03:00:57.844Z,4.00
2017-10-31T03:01:57.827Z,4.00
2017-10-31T03:02:57.817Z,4.00
2017-10-31T03:03:57.830Z,4.00
2017-10-31T03:04:57.813Z,4.00
2017-10-31T03:05:57.802Z,4.00
2017-10-31T03:06:57.798Z,4.00
2017-10-31T03:07:57.794Z,4.00
2017-10-31T03:08:57.799Z,4.00
2017-10-31T03:09:57.786Z,4.00
2017-10-31T03:10:57.779Z,4.00
2017-10-31T03:11:58.343Z,4.00
2017-10-31T03:12:57.770Z,4.00
2017-10-31T03:13:57.764Z,4.00
2017-10-31T03:14:57.761Z,4.00
2017-10-31T03:15:57.757Z,4.00
2017-10-31T03:16:57.753Z,4.00
2017-10-31T03:17:57.745Z,4.00
2017-10-31T03:18:57.744Z,4.00
2017-10-31T03:19:57.739Z,4.00
2017-10-31T03:20:57.734Z,4.00
2017-10-31T03:21:57.728Z,4.00
2017-10-31T03:22:57.728Z,4.00
2017-10-31T03:23:57.720Z,4.00
2017-10-31T03:24:57.714Z,4.00
2017-10-31T03:25:57.732Z,4.00
2017-10-31T03:26:57.708Z,4.00
2017-10-31T03:27:57.700Z,4.00
2017-10-31T03:28:57.698Z,4.00
2017-10-31T03:29:57.692Z,4.00
2017-10-31T03:30:57.686Z,4.00
2017-10-31T03:31:57.683Z,4.00
2017-10-31T03:32:57.681Z,4.00
2017-10-31T03:33:57.671Z,4.00
2017-10-31T03:34:57.671Z,4.00
2017-10-31T03:35:57.665Z,4.00
2017-10-31T03:36:57.668Z,4.00
2017-10-31T03:37:57.653Z,4.00
2017-10-31T03:38:57.665Z,4.00
2017-10-31T03:39:57.658Z,4.00
2017-10-31T03:40:57.657Z,4.00
2017-10-31T03:41:57.638Z,4.00
2017-10-31T03:42:57.633Z,4.00
2017-10-31T03:43:57.630Z,4.00
2017-10-31T03:44:57.633Z,4.00
2017-10-31T03:45:57.620Z,4.00
2017-10-31T03:46:57.612Z,4.00
2017-10-31T03:47:57.607Z,4.00
2017-10-31T03:48:57.605Z,4.00
2017-10-31T03:49:57.598Z,4.00
2017-10-31T03:50:57.593Z,4.00
2017-10-31T03:51:57.588Z,4.00
2017-10-31T03:52:57.584Z,4.00
2017-10-31T03:53:57.579Z,4.00
2017-10-31T03:54:57.576Z,4.00
2017-10-31T03:55:57.573Z,4.00
2017-10-31T03:56:57.565Z,4.00
2017-10-31T03:57:57.566Z,4.00
2017-10-31T03:58:57.558Z,4.00
2017-10-31T03:59:57.552Z,4.00
2017-10-31T04:00:57.548Z,4.00
2017-10-31T04:01:57.546Z,4.00
2017-10-31T04:02:57.538Z,4.00
2017-10-31T04:03:57.537Z,4.00
2017-10-31T04:04:57.528Z,4.00
2017-10-31T04:05:57.524Z,4.00
2017-10-31T04:06:57.521Z,4.00
2017-10-31T04:07:57.517Z,4.00
2017-10-31T04:08:57.510Z,4.00
2017-10-31T04:09:57.507Z,4.00
2017-10-31T04:10:57.506Z,4.00
2017-10-31T04:11:57.499Z,4.00
2017-10-31T04:12:57.499Z,4.00
2017-10-31T04:13:57.487Z,4.00
2017-10-31T04:14:57.484Z,4.00
2017-10-31T04:15:57.479Z,4.00
2017-10-31T04:16:57.475Z,4.00
2017-10-31T04:17:57.471Z,4.00
2017-10-31T04:18:57.465Z,4.00
2017-10-31T04:19:57.460Z,4.00
2017-10-31T04:20:57.456Z,4.00
2017-10-31T04:21:57.452Z,4.00
2017-10-31T04:22:57.447Z,4.00
2017-10-31T04:23:57.445Z,4.00
2017-10-31T04:24:57.438Z,4.00
2017-10-31T04:25:57.434Z,4.00
2017-10-31T04:26:57.429Z,4.00
2017-10-31T04:27:57.424Z,4.00
2017-10-31T04:28:57.420Z,4.00
2017-10-31T04:29:57.415Z,4.00
2017-10-31T04:30:57.417Z,4.00
2017-10-31T04:31:57.408Z,4.00
2017-10-31T04:32:57.401Z,4.00
2017-10-31T04:33:57.398Z,4.00
2017-10-31T04:34:57.393Z,4.00
2017-10-31T04:35:57.389Z,4.00
2017-10-31T04:36:57.382Z,4.00
2017-10-31T04:37:57.379Z,4.00
2017-10-31T04:38:57.374Z,4.00
2017-10-31T04:39:57.370Z,4.00
2017-10-31T04:40:57.364Z,4.00
2017-10-31T04:41:57.360Z,4.00
2017-10-31T04:42:57.359Z,4.00
2017-10-31T04:43:57.471Z,4.00
2017-10-31T04:44:57.346Z,4.00
2017-10-31T04:45:57.344Z,4.00
2017-10-31T04:46:57.346Z,4.00
2017-10-31T04:47:57.331Z,4.00
2017-10-31T04:48:57.330Z,4.00
2017-10-31T04:49:57.322Z,4.00
2017-10-31T04:50:57.318Z,4.00
2017-10-31T04:51:57.318Z,4.00
2017-10-31T04:52:57.308Z,4.00
2017-10-31T04:53:57.305Z,4.00
2017-10-31T04:54:57.308Z,4.00
2017-10-31T04:55:57.295Z,4.00
2017-10-31T04:56:57.289Z,4.00
2017-10-31T04:57:57.285Z,4.00
2017-10-31T04:58:57.288Z,4.00
2017-10-31T04:59:57.278Z,4.00
2017-10-31T05:00:57.274Z,4.00
2017-10-31T05:01:57.273Z,4.00
2017-10-31T05:02:57.262Z,4.00
2017-10-31T05:03:57.259Z,4.00
2017-10-31T05:04:57.255Z,4.00
2017-10-31T05:05:57.249Z,4.00
2017-10-31T05:06:57.245Z,4.00
2017-10-31T05:07:57.249Z,4.00
2017-10-31T05:08:57.235Z,4.00
2017-10-31T05:09:57.232Z,4.00
2017-10-31T05:10:57.234Z,4.00
2017-10-31T05:11:57.221Z,4.00
2017-10-31T05:12:57.217Z,4.00
2017-10-31T05:13:57.211Z,4.00
2017-10-31T05:14:57.875Z,4.00
2017-10-31T05:15:57.204Z,4.00
2017-10-31T05:16:57.201Z,4.00
2017-10-31T05:17:57.192Z,4.00
2017-10-31T05:18:57.189Z,4.00
2017-10-31T05:19:57.189Z,4.00
2017-10-31T05:20:57.183Z,4.00
2017-10-31T05:21:57.176Z,4.00
2017-10-31T05:22:57.174Z,4.00
2017-10-31T05:23:57.165Z,4.00
2017-10-31T05:24:57.166Z,4.00
2017-10-31T05:25:57.159Z,4.00
2017-10-31T05:26:57.152Z,4.00
2017-10-31T05:27:57.147Z,4.00
2017-10-31T05:28:57.142Z,4.00
2017-10-31T05:29:57.137Z,4.00
2017-10-31T05:30:57.135Z,4.00
2017-10-31T05:31:57.129Z,8.00
2017-10-31T05:32:57.123Z,8.00
2017-10-31T05:33:57.121Z,8.00
2017-10-31T05:34:57.123Z,8.00
2017-10-31T05:35:57.111Z,8.00
2017-10-31T05:36:57.105Z,8.00
2017-10-31T05:37:57.099Z,4.00
2017-10-31T05:38:57.096Z,4.00
2017-10-31T05:39:57.091Z,8.00
2017-10-31T05:40:57.088Z,8.00
2017-10-31T05:41:57.083Z,4.00
2017-10-31T05:42:57.081Z,4.00
2017-10-31T05:43:57.076Z,4.00
2017-10-31T05:44:57.066Z,4.00
2017-10-31T05:45:57.062Z,8.00
2017-10-31T05:46:57.059Z,4.00
2017-10-31T05:47:57.053Z,8.00
2017-10-31T05:48:57.047Z,8.00
2017-10-31T05:49:57.047Z,12.00
2017-10-31T05:50:57.038Z,12.00
2017-10-31T05:51:57.034Z,12.00
2017-10-31T05:52:57.032Z,16.00
2017-10-31T05:53:57.023Z,20.00
2017-10-31T05:54:57.022Z,20.00
2017-10-31T05:55:57.015Z,24.00
2017-10-31T05:56:57.009Z,24.00
2017-10-31T05:57:57.007Z,28.00
2017-10-31T05:58:57.001Z,32.00
2017-10-31T05:59:57.001Z,32.00
2017-10-31T06:00:56.989Z,36.00
2017-10-31T06:01:56.998Z,44.00
2017-10-31T06:02:56.981Z,48.00
2017-10-31T06:03:56.978Z,52.00
2017-10-31T06:04:56.974Z,56.00
2017-10-31T06:05:56.966Z,60.00
2017-10-31T06:06:56.965Z,64.00
2017-10-31T06:07:56.958Z,68.00
2017-10-31T06:08:56.955Z,76.00
2017-10-31T06:09:56.949Z,80.00
2017-10-31T06:10:56.948Z,84.00
2017-10-31T06:11:56.949Z,96.00
2017-10-31T06:12:56.935Z,100.00
2017-10-31T06:13:56.932Z,108.00
2017-10-31T06:14:56.923Z,112.00
2017-10-31T06:15:56.926Z,120.00
2017-10-31T06:16:56.912Z,128.00
2017-10-31T06:17:56.908Z,132.00
2017-10-31T06:18:56.909Z,140.00
2017-10-31T06:19:56.899Z,152.00
2017-10-31T06:20:56.898Z,160.00
2017-10-31T06:21:56.890Z,168.00
2017-10-31T06:22:56.888Z,176.00
2017-10-31T06:23:56.879Z,184.00
2017-10-31T06:24:56.875Z,192.00
2017-10-31T06:25:56.873Z,204.00
2017-10-31T06:26:56.867Z,216.00
2017-10-31T06:27:56.868Z,224.00
2017-10-31T06:28:56.859Z,236.00
2017-10-31T06:29:56.852Z,248.00
2017-10-31T06:30:56.854Z,260.00
2017-10-31T06:31:56.844Z,260.00
2017-10-31T06:32:56.841Z,260.00
2017-10-31T06:33:56.836Z,264.00
2017-10-31T06:34:56.831Z,272.00
2017-10-31T06:35:56.824Z,280.00
2017-10-31T06:36:56.819Z,280.00
2017-10-31T06:37:56.814Z,284.00
2017-10-31T06:38:56.810Z,292.00
2017-10-31T06:39:56.807Z,296.00
2017-10-31T06:40:56.800Z,300.00
2017-10-31T06:41:56.795Z,312.00
2017-10-31T06:42:56.798Z,320.00
2017-10-31T06:43:56.790Z,328.00
2017-10-31T06:44:56.781Z,340.00
2017-10-31T06:45:56.782Z,352.00
2017-10-31T06:46:57.010Z,356.00
2017-10-31T06:47:56.767Z,372.00
2017-10-31T06:48:56.762Z,396.00
2017-10-31T06:49:56.759Z,412.00
2017-10-31T06:50:56.753Z,432.00
2017-10-31T06:51:56.750Z,440.00
2017-10-31T06:52:56.747Z,460.00
2017-10-31T06:53:56.741Z,480.00
2017-10-31T06:54:56.736Z,504.00
2017-10-31T06:55:56.735Z,516.00
2017-10-31T06:56:56.727Z,540.00
2017-10-31T06:57:56.725Z,544.00
2017-10-31T06:58:56.723Z,548.00
2017-10-31T06:59:56.714Z,548.00
2017-10-31T07:00:56.710Z,536.00
2017-10-31T07:01:56.705Z,528.00
2017-10-31T07:02:56.703Z,528.00
2017-10-31T07:03:56.695Z,548.00
2017-10-31T07:04:56.690Z,572.00
2017-10-31T07:05:56.689Z,588.00
2017-10-31T07:06:56.685Z,576.00
2017-10-31T07:07:56.677Z,552.00
2017-10-31T07:08:56.673Z,540.00
2017-10-31T07:09:56.670Z,544.00
2017-10-31T07:10:56.664Z,556.00
2017-10-31T07:11:56.659Z,568.00
2017-10-31T07:12:56.655Z,580.00
2017-10-31T07:13:56.651Z,600.00
2017-10-31T07:14:56.648Z,612.00
2017-10-31T07:15:56.643Z,612.00
2017-10-31T07:16:56.637Z,628.00
2017-10-31T07:17:57.362Z,644.00
2017-10-31T07:18:56.630Z,668.00
2017-10-31T07:19:56.625Z,680.00
2017-10-31T07:20:56.619Z,692.00
2017-10-31T07:21:56.615Z,708.00
2017-10-31T07:22:56.611Z,716.00
2017-10-31T07:23:56.606Z,716.00
2017-10-31T07:24:56.605Z,720.00
2017-10-31T07:25:56.597Z,720.00
2017-10-31T07:26:56.592Z,716.00
2017-10-31T07:27:56.588Z,716.00
2017-10-31T07:28:56.583Z,732.00
2017-10-31T07:29:56.578Z,732.00
2017-10-31T07:30:56.575Z,716.00
2017-10-31T07:31:56.571Z,700.00
2017-10-31T07:32:56.567Z,688.00
2017-10-31T07:33:56.560Z,680.00
2017-10-31T07:34:56.557Z,676.00
2017-10-31T07:35:56.555Z,688.00
2017-10-31T07:36:56.548Z,676.00
2017-10-31T07:37:56.543Z,668.00
2017-10-31T07:38:56.540Z,684.00
2017-10-31T07:39:56.535Z,700.00
2017-10-31T07:40:56.529Z,716.00
2017-10-31T07:41:56.532Z,704.00
2017-10-31T07:42:57.142Z,672.00
2017-10-31T07:43:56.516Z,636.00
2017-10-31T07:44:56.515Z,604.00
2017-10-31T07:45:56.506Z,584.00
2017-10-31T07:46:56.507Z,580.00
2017-10-31T07:47:56.500Z,616.00
2017-10-31T07:48:56.495Z,672.00
2017-10-31T07:49:56.490Z,712.00
2017-10-31T07:50:56.487Z,760.00
2017-10-31T07:51:56.483Z,804.00
2017-10-31T07:52:56.476Z,940.00
2017-10-31T07:53:56.472Z,1028.00
2017-10-31T07:54:56.468Z,940.00
2017-10-31T07:55:56.465Z,936.00
2017-10-31T07:56:56.458Z,976.00
2017-10-31T07:57:56.458Z,988.00
2017-10-31T07:58:56.449Z,996.00
2017-10-31T07:59:56.448Z,1020.00
2017-10-31T08:00:56.442Z,936.00
2017-10-31T08:01:56.435Z,888.00
2017-10-31T08:02:56.435Z,920.00
2017-10-31T08:03:56.428Z,880.00
2017-10-31T08:04:56.424Z,844.00
2017-10-31T08:05:56.418Z,840.00
2017-10-31T08:06:56.414Z,804.00
2017-10-31T08:07:56.410Z,764.00
2017-10-31T08:08:56.407Z,756.00
2017-10-31T08:09:56.404Z,752.00
2017-10-31T08:10:56.398Z,748.00
2017-10-31T08:11:56.394Z,732.00
2017-10-31T08:12:56.391Z,720.00
2017-10-31T08:13:56.382Z,720.00
2017-10-31T08:14:56.378Z,724.00
2017-10-31T08:15:56.374Z,732.00
2017-10-31T08:16:56.368Z,732.00
2017-10-31T08:17:56.366Z,744.00
2017-10-31T08:18:56.364Z,768.00
2017-10-31T08:19:56.356Z,792.00
2017-10-31T08:20:56.353Z,804.00
2017-10-31T08:21:56.348Z,812.00
2017-10-31T08:22:56.340Z,816.00
2017-10-31T08:23:56.570Z,844.00
2017-10-31T08:24:56.334Z,872.00
2017-10-31T08:25:56.328Z,892.00
2017-10-31T08:26:56.322Z,904.00
2017-10-31T08:27:56.322Z,900.00
2017-10-31T08:28:56.422Z,880.00
2017-10-31T08:29:56.308Z,900.00
2017-10-31T08:30:56.305Z,916.00
2017-10-31T08:31:56.300Z,972.00
2017-10-31T08:32:56.296Z,1024.00
2017-10-31T08:33:56.290Z,1064.00
2017-10-31T08:34:56.290Z,1168.00
2017-10-31T08:35:56.280Z,1436.00
2017-10-31T08:36:56.275Z,1492.00
2017-10-31T08:37:56.272Z,1684.00
2017-10-31T08:38:56.266Z,2028.00
2017-10-31T08:39:56.266Z,2092.00
2017-10-31T08:40:56.257Z,2244.00
2017-10-31T08:41:56.267Z,2604.00
2017-10-31T08:42:56.251Z,2656.00
2017-10-31T08:43:56.246Z,2220.00
2017-10-31T08:44:56.239Z,2148.00
2017-10-31T08:45:56.241Z,2092.00
2017-10-31T08:46:56.230Z,2048.00
2017-10-31T08:47:56.243Z,1952.00
2017-10-31T08:48:56.222Z,1892.00
2017-10-31T08:49:56.552Z,1900.00
2017-10-31T08:50:56.214Z,1876.00
2017-10-31T08:51:56.212Z,1896.00
2017-10-31T08:52:56.208Z,1964.00
2017-10-31T08:53:56.202Z,1908.00
2017-10-31T08:54:56.199Z,1888.00
2017-10-31T08:55:56.201Z,1928.00
2017-10-31T08:56:56.191Z,1972.00
2017-10-31T08:57:56.188Z,1880.00
2017-10-31T08:58:56.183Z,1776.00
2017-10-31T08:59:56.181Z,1784.00
2017-10-31T09:00:56.175Z,1816.00
2017-10-31T09:01:56.186Z,1772.00
2017-10-31T09:02:56.169Z,1856.00
2017-10-31T09:03:56.166Z,1968.00
2017-10-31T09:04:56.416Z,2016.00
2017-10-31T09:05:56.158Z,1976.00
2017-10-31T09:06:56.155Z,1928.00
2017-10-31T09:07:56.150Z,1884.00
2017-10-31T09:08:56.144Z,1816.00
2017-10-31T09:09:56.141Z,1688.00
2017-10-31T09:10:56.138Z,1672.00
2017-10-31T09:11:56.136Z,1712.00
2017-10-31T09:12:56.138Z,1768.00
2017-10-31T09:13:56.127Z,1628.00
2017-10-31T09:14:56.127Z,1620.00
2017-10-31T09:15:56.422Z,1568.00
2017-10-31T09:16:56.120Z,1536.00
2017-10-31T09:17:56.212Z,1520.00
2017-10-31T09:18:56.109Z,1560.00
2017-10-31T09:19:56.107Z,1620.00
2017-10-31T09:20:57.056Z,1708.00
2017-10-31T09:21:56.099Z,1740.00
2017-10-31T09:22:56.099Z,1736.00
2017-10-31T09:23:56.093Z,1740.00
2017-10-31T09:24:56.088Z,1736.00
2017-10-31T09:25:56.085Z,1672.00
2017-10-31T09:26:56.083Z,1608.00
2017-10-31T09:27:56.084Z,1600.00
2017-10-31T09:28:56.074Z,1584.00
2017-10-31T09:29:56.071Z,1432.00
2017-10-31T09:30:56.066Z,1404.00
2017-10-31T09:31:56.064Z,1388.00
2017-10-31T09:32:56.066Z,1328.00
2017-10-31T09:33:56.058Z,1220.00
2017-10-31T09:34:56.054Z,1184.00
2017-10-31T09:35:56.050Z,1044.00
2017-10-31T09:36:56.048Z,968.00
2017-10-31T09:37:56.044Z,948.00
2017-10-31T09:38:56.039Z,976.00
2017-10-31T09:39:56.041Z,1040.00
2017-10-31T09:40:56.033Z,1136.00
2017-10-31T09:41:56.028Z,1216.00
2017-10-31T09:42:56.026Z,1416.00
2017-10-31T09:43:56.027Z,1900.00
2017-10-31T09:44:56.026Z,2244.00
2017-10-31T09:45:56.028Z,2112.00
2017-10-31T09:46:56.012Z,1936.00
2017-10-31T09:47:56.015Z,2052.00
2017-10-31T09:48:56.005Z,2028.00
2017-10-31T09:49:56.000Z,1760.00
2017-10-31T09:50:55.997Z,1700.00
2017-10-31T09:51:55.996Z,1604.00
2017-10-31T09:52:55.992Z,1480.00
2017-10-31T09:53:55.985Z,1620.00
2017-10-31T09:54:55.982Z,1952.00
2017-10-31T09:55:55.980Z,2036.00
2017-10-31T09:56:56.073Z,1996.00
2017-10-31T09:57:55.974Z,1852.00
2017-10-31T09:58:56.063Z,1896.00
2017-10-31T09:59:55.968Z,2136.00
2017-10-31T10:00:56.112Z,2396.00
2017-10-31T10:01:56.359Z,2224.00
2017-10-31T10:02:56.024Z,1968.00
2017-10-31T10:03:55.960Z,1900.00
2017-10-31T10:04:55.947Z,1828.00
2017-10-31T10:05:55.943Z,1708.00
2017-10-31T10:06:55.943Z,1308.00
2017-10-31T10:07:55.950Z,1220.00
2017-10-31T10:08:55.936Z,1260.00
2017-10-31T10:09:55.931Z,1364.00
2017-10-31T10:10:55.931Z,1428.00
2017-10-31T10:11:55.926Z,1532.00
2017-10-31T10:12:55.927Z,1540.00
2017-10-31T10:13:55.919Z,1352.00
2017-10-31T10:14:56.003Z,1392.00
2017-10-31T10:15:55.912Z,1620.00
2017-10-31T10:16:56.202Z,1988.00
2017-10-31T10:17:55.907Z,2052.00
2017-10-31T10:18:55.903Z,2184.00
2017-10-31T10:19:55.898Z,2248.00
2017-10-31T10:20:56.164Z,2060.00
2017-10-31T10:21:55.907Z,2312.00
2017-10-31T10:22:55.891Z,2124.00
2017-10-31T10:23:55.885Z,1964.00
2017-10-31T10:24:55.881Z,1716.00
2017-10-31T10:25:55.883Z,1292.00
2017-10-31T10:26:55.875Z,1248.00
2017-10-31T10:27:55.872Z,1388.00
2017-10-31T10:28:55.869Z,1688.00
2017-10-31T10:29:55.871Z,1608.00
2017-10-31T10:30:55.863Z,1480.00
2017-10-31T10:31:55.860Z,1380.00
2017-10-31T10:32:55.855Z,1320.00
2017-10-31T10:33:55.852Z,1284.00
2017-10-31T10:34:55.848Z,1408.00
2017-10-31T10:35:55.849Z,1560.00
2017-10-31T10:36:55.853Z,1612.00
2017-10-31T10:37:55.841Z,1740.00
2017-10-31T10:38:55.838Z,1904.00
2017-10-31T10:39:55.833Z,2104.00
2017-10-31T10:40:55.831Z,2124.00
2017-10-31T10:41:55.826Z,2096.00
2017-10-31T10:42:55.824Z,2108.00
2017-10-31T10:43:55.821Z,2040.00
2017-10-31T10:44:55.823Z,2128.00
2017-10-31T10:45:55.814Z,2304.00
2017-10-31T10:46:55.817Z,2384.00
2017-10-31T10:47:55.807Z,2396.00
2017-10-31T10:48:55.803Z,2272.00
2017-10-31T10:49:55.802Z,2120.00
2017-10-31T10:50:55.799Z,1932.00
2017-10-31T10:51:55.797Z,1756.00
2017-10-31T10:52:56.373Z,1764.00
2017-10-31T10:53:55.790Z,1772.00
2017-10-31T10:54:55.785Z,1980.00
2017-10-31T10:55:55.945Z,2140.00
2017-10-31T10:56:55.781Z,2448.00
2017-10-31T10:57:55.813Z,2436.00
2017-10-31T10:58:55.772Z,2396.00
2017-10-31T10:59:55.768Z,2416.00
2017-10-31T11:00:55.766Z,2272.00
2017-10-31T11:01:55.764Z,2136.00
2017-10-31T11:02:55.758Z,2036.00
2017-10-31T11:03:55.756Z,1900.00
2017-10-31T11:04:56.657Z,1796.00
2017-10-31T11:05:55.924Z,1700.00
2017-10-31T11:06:55.748Z,1676.00
2017-10-31T11:07:55.744Z,1532.00
2017-10-31T11:08:56.072Z,1348.00
2017-10-31T11:09:55.738Z,1232.00
2017-10-31T11:10:55.736Z,1160.00
2017-10-31T11:11:55.732Z,1164.00
2017-10-31T11:12:55.728Z,1268.00
2017-10-31T11:13:55.725Z,1332.00
2017-10-31T11:14:55.819Z,1348.00
2017-10-31T11:15:55.719Z,1296.00
2017-10-31T11:16:55.718Z,1216.00
2017-10-31T11:17:55.717Z,1124.00
2017-10-31T11:18:55.710Z,1176.00
2017-10-31T11:19:55.709Z,1248.00
2017-10-31T11:20:55.705Z,1268.00
2017-10-31T11:21:55.967Z,1320.00
2017-10-31T11:22:55.844Z,1364.00
2017-10-31T11:23:56.927Z,1412.00
2017-10-31T11:24:55.732Z,1560.00
2017-10-31T11:25:55.873Z,1824.00
2017-10-31T11:26:55.691Z,2140.00
2017-10-31T11:27:55.685Z,2472.00
2017-10-31T11:28:55.681Z,2724.00
2017-10-31T11:29:55.678Z,2792.00
2017-10-31T11:30:55.685Z,2820.00
2017-10-31T11:31:55.672Z,2788.00
2017-10-31T11:32:55.669Z,2716.00
2017-10-31T11:33:55.666Z,2640.00
2017-10-31T11:34:55.666Z,2688.00
2017-10-31T11:35:55.672Z,2828.00
2017-10-31T11:36:55.663Z,2860.00
2017-10-31T11:37:55.658Z,2836.00
2017-10-31T11:38:55.655Z,2824.00
2017-10-31T11:39:55.710Z,2764.00
2017-10-31T11:40:55.648Z,2792.00
2017-10-31T11:41:55.647Z,2808.00
2017-10-31T11:42:55.645Z,2840.00
2017-10-31T11:43:55.728Z,2804.00
2017-10-31T11:44:55.642Z,2784.00
2017-10-31T11:45:55.638Z,2744.00
2017-10-31T11:46:55.709Z,2704.00
2017-10-31T11:47:55.635Z,2696.00
2017-10-31T11:48:55.631Z,2684.00
2017-10-31T11:49:55.664Z,2712.00
2017-10-31T11:50:55.633Z,2756.00
2017-10-31T11:51:55.626Z,2780.00
2017-10-31T11:52:55.622Z,2752.00
2017-10-31T11:53:55.621Z,2752.00
2017-10-31T11:54:55.619Z,2672.00
2017-10-31T11:55:55.617Z,2608.00
2017-10-31T11:56:55.618Z,2524.00
2017-10-31T11:57:55.613Z,2444.00
2017-10-31T11:58:55.610Z,2356.00
2017-10-31T11:59:55.778Z,2216.00
2017-10-31T12:00:55.609Z,2084.00
2017-10-31T12:01:55.606Z,1936.00
2017-10-31T12:02:55.605Z,1832.00
2017-10-31T12:03:55.601Z,1780.00
2017-10-31T12:04:55.598Z,1812.00
2017-10-31T12:05:55.607Z,1728.00
2017-10-31T12:06:55.595Z,1584.00
2017-10-31T12:07:55.593Z,1440.00
2017-10-31T12:08:55.590Z,1332.00
2017-10-31T12:09:55.587Z,1212.00
2017-10-31T12:10:55.591Z,1108.00
2017-10-31T12:11:55.635Z,1052.00
2017-10-31T12:12:55.583Z,1008.00
2017-10-31T12:13:55.588Z,1044.00
2017-10-31T12:14:55.583Z,1128.00
2017-10-31T12:15:55.591Z,1068.00
2017-10-31T12:16:55.574Z,976.00
2017-10-31T12:17:55.575Z,844.00
2017-10-31T12:18:55.577Z,760.00
2017-10-31T12:19:55.568Z,780.00
2017-10-31T12:20:55.565Z,856.00
2017-10-31T12:21:55.562Z,996.00
2017-10-31T12:22:55.561Z,1220.00
2017-10-31T12:23:55.560Z,1404.00
2017-10-31T12:24:55.561Z,1512.00
2017-10-31T12:25:55.556Z,1604.00
2017-10-31T12:26:55.553Z,1652.00
2017-10-31T12:27:55.552Z,1784.00
2017-10-31T12:28:55.568Z,1856.00
2017-10-31T12:29:55.549Z,1852.00
2017-10-31T12:30:55.545Z,1788.00
2017-10-31T12:31:55.542Z,1772.00
2017-10-31T12:32:55.539Z,1756.00
2017-10-31T12:33:55.545Z,1772.00
2017-10-31T12:34:55.535Z,1820.00
2017-10-31T12:35:55.535Z,1912.00
2017-10-31T12:36:55.529Z,1928.00
2017-10-31T12:37:55.533Z,1832.00
2017-10-31T12:38:55.533Z,1784.00
2017-10-31T12:39:55.524Z,1780.00
2017-10-31T12:40:55.521Z,1736.00
2017-10-31T12:41:55.522Z,1660.00
2017-10-31T12:42:55.518Z,1552.00
2017-10-31T12:43:55.518Z,1488.00